Terminal Aerodrome Forecast
Issued by NWS

Home | Current Version | Previous Version | Text Only | Print | Product List | Glossary On
Versions: 1 2 3 4 5 6 7 8 9 10 11 12 13 14
000
FTUS43 KSGF 102326
TAFBBG
TAF
KBBG 102326Z 1100/1124 21009KT P6SM SCT250
     FM110300 18006KT P6SM SKC WS020/27038KT
     FM110600 VRB03KT P6SM FEW250
     FM111200 06008KT P6SM SCT250=

USA.gov is the U.S. government's official web portal to all federal, state and local government web resources and services.